Fairchem Charger — V7RD4 — position and weather

sailwx.info

Track history (hours):
 
Tides and Currents Weather Stations Pressure Air Temp Water Temp Dewpoint Dewpoint Depression Visibility Wind Speed Wind Dir Waves Ship Positions

Fairchem Charger

Last reported at 2018-Sep-08 12:03 UTC. Time now 2018-Sep-19 11:24 UTC.
Position N 58°43' E 003°47'.
Warning: this ship's position is 10 days out of date.

Length 146 m; draft 9.8 m.

Type: Ship (hazmat cat B). MMSI: 538003481.

Date/timePositionNaut miles runAvg speedWind from/ knotsBaromVisibWave heightAir tempDewpointWater temp
2018-Sep-08 12:03N 58°43' E 003°47'313.5
2018-Sep-08 11:51N 58°43' E 003°52'513.3
2018-Sep-08 11:28N 58°43' E 004°01'613.5
2018-Sep-08 11:03N 58°41' E 004°12'113.4
2018-Sep-08 10:59N 58°40' E 004°14'713.4
2018-Sep-08 10:29N 58°38' E 004°25'613.5
2018-Sep-08 10:03N 58°36' E 004°36'113.7
2018-Sep-08 10:00N 58°36' E 004°38'713.9
2018-Sep-08 09:30N 58°34' E 004°50'613.9
2018-Sep-08 09:03N 58°32' E 005°01'113.6
2018-Sep-08 09:00N 58°31' E 005°02'814.1
2018-Sep-08 08:28N 58°26' E 005°13'614.6
2018-Sep-08 08:03N 58°22' E 005°22'114.9
2018-Sep-08 08:00N 58°22' E 005°23'715.0
2018-Sep-08 07:30N 58°17' E 005°34'714.7
2018-Sep-08 07:03N 58°13' E 005°43'114.5
2018-Sep-08 07:00N 58°12' E 005°45'714.5
2018-Sep-08 06:30N 58°07' E 005°55'614.5
2018-Sep-08 06:03N 58°03' E 006°04'114.6
2018-Sep-08 06:00N 58°03' E 006°05'714.7
2018-Sep-08 05:30N 57°58' E 006°16'714.7
2018-Sep-08 05:03N 57°53' E 006°25'114.3
2018-Sep-08 04:59N 57°53' E 006°26'714.2
2018-Sep-08 04:30N 57°48' E 006°36'713.8
2018-Sep-08 03:59N 57°47' E 006°49'714.1
2018-Sep-08 03:29N 57°47' E 007°03'614.0
2018-Sep-08 03:03N 57°47' E 007°14'114.1
2018-Sep-08 03:00N 57°47' E 007°15'714.0
2018-Sep-08 02:30N 57°47' E 007°28'613.6
2018-Sep-08 02:03N 57°46' E 007°40'013.2
2018-Sep-08 02:00N 57°46' E 007°41'713.0
2018-Sep-08 01:29N 57°46' E 007°54'612.8
2018-Sep-08 01:03N 57°48' E 008°04'113.0
2018-Sep-08 01:00N 57°48' E 008°05'713.0
2018-Sep-08 00:29N 57°50' E 008°17'512.9
2018-Sep-08 00:03N 57°50' E 008°27'113.1
2018-Sep-08 00:00N 57°50' E 008°29'612.8
2018-Sep-07 23:30N 57°49' E 008°41'612.6
2018-Sep-07 23:03N 57°48' E 008°51'112.5
2018-Sep-07 23:00N 57°48' E 008°52'611.8
2018-Sep-07 22:30N 57°49' E 009°03'612.2
2018-Sep-07 22:03N 57°52' E 009°12'112.3
2018-Sep-07 21:58N 57°52' E 009°14'612.4
2018-Sep-07 21:30N 57°55' E 009°24'612.4
2018-Sep-07 21:03N 57°58' E 009°33'112.4
2018-Sep-07 21:00N 57°58' E 009°34'612.1
2018-Sep-07 20:30N 57°59' E 009°45'712.8
2018-Sep-07 19:55N 57°60' E 009°59'713.0
2018-Sep-07 19:23N 57°60' E 010°12'1213.4
2018-Sep-07 18:29N 57°60' E 010°35'614.1
2018-Sep-07 18:01N 57°56' E 010°45'114.4
2018-Sep-07 17:59N 57°56' E 010°46'714.0
2018-Sep-07 17:29N 57°52' E 010°56'613.8
2018-Sep-07 17:03N 57°48' E 011°06'113.4
2018-Sep-07 17:01N 57°48' E 011°07'713.4
2018-Sep-07 16:31N 57°42' E 011°14'613.6
2018-Sep-07 16:03N 57°37' E 011°20'113.5
2018-Sep-07 16:00N 57°36' E 011°21'612.5
2018-Sep-07 15:31N 57°33' E 011°30'510.9
2018-Sep-07 15:04N 57°34' E 011°39'1 9.9
2018-Sep-07 15:00N 57°35' E 011°40'1 0.8
2018-Sep-07 13:58N 57°35' E 011°41'0 0.0
2018-Sep-07 13:28N 57°35' E 011°41'0 0.0
2018-Sep-07 13:01N 57°35' E 011°41'0 0.0
2018-Sep-07 12:58N 57°35' E 011°41'0 0.0
2018-Sep-07 12:28N 57°35' E 011°41'0 0.0
2018-Sep-07 12:01N 57°35' E 011°41'0 0.2
2018-Sep-07 11:55N 57°35' E 011°41'0 0.0
2018-Sep-07 11:28N 57°35' E 011°41'0 0.8
2018-Sep-07 11:03N 57°35' E 011°40'0 5.1
2018-Sep-07 11:00N 57°35' E 011°40'3 6.7
2018-Sep-07 10:30N 57°33' E 011°35'4 8.6
2018-Sep-07 10:03N 57°30' E 011°31'112.3
2018-Sep-07 10:00N 57°29' E 011°31'611.6
2018-Sep-07 09:30N 57°23' E 011°30'613.5
2018-Sep-07 09:03N 57°17' E 011°34'114.4
2018-Sep-07 09:00N 57°17' E 011°34'814.1
2018-Sep-07 08:28N 57°10' E 011°38'12111.5
2018-Sep-06 21:59N 55°10' E 011°04'612.8
2018-Sep-06 21:30N 55°04' E 011°02'612.3
2018-Sep-06 21:03N 54°59' E 010°60'111.8
2018-Sep-06 21:00N 54°58' E 010°59'612.2
2018-Sep-06 20:30N 54°53' E 010°53'612.6
2018-Sep-06 20:03N 54°48' E 010°52'111.3
2018-Sep-06 20:00N 54°47' E 010°53'4 8.3
2018-Sep-06 19:30N 54°43' E 010°53'3 6.8
2018-Sep-06 19:03N 54°41' E 010°57'0 6.9
2018-Sep-06 19:00N 54°41' E 010°58'3 6.5
2018-Sep-06 18:30N 54°39' E 011°03'4 8.3
2018-Sep-06 18:03N 54°37' E 011°08'0 6.3
2018-Sep-06 18:00N 54°37' E 011°09'3 6.6
2018-Sep-06 17:30N 54°35' E 011°14'511.7
2018-Sep-06 17:02N 54°33' E 011°22'012.2
2018-Sep-06 17:00N 54°33' E 011°23'612.4
2018-Sep-06 16:30N 54°30' E 011°33'512.4
2018-Sep-06 16:03N 54°28' E 011°41'112.3
2018-Sep-06 16:00N 54°28' E 011°42'7612.4
2018-Sep-06 09:54N 54°59' E 013°41'513.3
2018-Sep-06 09:30N 55°01' E 013°49'613.4
2018-Sep-06 09:03N 55°03' E 013°59'113.5
2018-Sep-06 09:00N 55°03' E 014°01'713.0
2018-Sep-06 08:30N 55°07' E 014°09'613.3
2018-Sep-06 08:03N 55°12' E 014°16'113.5
2018-Sep-06 08:00N 55°13' E 014°16'713.6
2018-Sep-06 07:30N 55°18' E 014°24'613.5
2018-Sep-06 07:03N 55°23' E 014°31'113.9
2018-Sep-06 07:00N 55°23' E 014°31'713.6
2018-Sep-06 06:30N 55°27' E 014°40'613.6
2018-Sep-06 06:03N 55°30' E 014°50'113.4
2018-Sep-06 06:00N 55°31' E 014°51'713.6
2018-Sep-06 05:30N 55°34' E 015°02'613.6
2018-Sep-06 05:03N 55°37' E 015°11'113.8
2018-Sep-06 05:00N 55°37' E 015°12'713.5
2018-Sep-06 04:30N 55°39' E 015°24'613.3
2018-Sep-06 04:03N 55°41' E 015°34'113.4
2018-Sep-06 04:00N 55°41' E 015°35'713.4
2018-Sep-06 03:30N 55°43' E 015°47'613.2
2018-Sep-06 03:03N 55°45' E 015°57'113.4
2018-Sep-06 03:00N 55°45' E 015°58'713.2
2018-Sep-06 02:30N 55°49' E 016°07'613.1
2018-Sep-06 02:03N 55°54' E 016°14'113.2
2018-Sep-06 02:00N 55°54' E 016°14'713.3
2018-Sep-06 01:30N 55°59' E 016°23'613.6
2018-Sep-06 01:03N 56°03' E 016°31'113.5
2018-Sep-06 01:00N 56°03' E 016°32'713.7
2018-Sep-06 00:30N 56°07' E 016°42'612.8
2018-Sep-06 00:03N 56°12' E 016°48'113.4
2018-Sep-06 00:00N 56°13' E 016°48'713.4
2018-Sep-05 23:29N 56°19' E 016°53'813.5
2018-Sep-05 22:55N 56°26' E 016°57'7013.4
2018-Sep-05 17:41N 57°32' E 017°43'313.8
2018-Sep-05 17:29N 57°35' E 017°46'4013.8
2018-Sep-05 14:33N 58°10' E 018°21'513.4
2018-Sep-05 14:10N 58°15' E 018°25'413.4
2018-Sep-05 13:51N 58°19' E 018°29'1213.4
2018-Sep-05 12:58N 58°29' E 018°41'3713.3
2018-Sep-05 10:12N 58°55' E 019°30'213.4
2018-Sep-05 10:03N 58°57' E 019°32'713.4
2018-Sep-05 09:34N 59°02' E 019°38'113.3
2018-Sep-05 09:29N 59°03' E 019°39'913.4
2018-Sep-05 08:49N 59°11' E 019°47'513.4
2018-Sep-05 08:24N 59°16' E 019°51'513.4
2018-Sep-05 08:03N 59°21' E 019°55'113.6
2018-Sep-05 07:59N 59°22' E 019°56'713.6
2018-Sep-05 07:30N 59°27' E 020°02'613.5
2018-Sep-05 07:03N 59°33' E 020°05'112.9
2018-Sep-05 07:00N 59°34' E 020°05'713.3
2018-Sep-05 06:30N 59°38' E 019°55'613.4
2018-Sep-05 06:03N 59°43' E 019°47'113.5
2018-Sep-05 06:00N 59°43' E 019°46'713.5
2018-Sep-05 05:30N 59°48' E 019°38'613.5
2018-Sep-05 05:03N 59°53' E 019°30'113.5
2018-Sep-05 04:59N 59°54' E 019°29'613.4
2018-Sep-05 04:30N 59°59' E 019°20'613.5
2018-Sep-05 04:03N 60°03' E 019°13'113.7
2018-Sep-05 04:00N 60°04' E 019°12'713.6
2018-Sep-05 03:30N 60°09' E 019°03'612.9
2018-Sep-05 03:03N 60°15' E 018°60'113.8
2018-Sep-05 03:00N 60°15' E 018°60'713.6
2018-Sep-05 02:30N 60°22' E 018°60'613.5
2018-Sep-05 02:03N 60°28' E 018°58'113.4
2018-Sep-05 02:00N 60°29' E 018°58'713.1
2018-Sep-05 01:30N 60°35' E 018°60'5813.4
2018-Sep-04 21:10N 61°16' E 020°25'213.6
2018-Sep-04 21:00N 61°18' E 020°28'63 1.4
2018-Sep-03 01:27N 60°30' E 019°03'513.7
2018-Sep-03 01:03N 60°25' E 019°02'113.6
2018-Sep-03 01:00N 60°24' E 019°02'713.6
2018-Sep-03 00:30N 60°17' E 019°02'613.4
2018-Sep-03 00:03N 60°12' E 019°07'113.5
2018-Sep-03 00:00N 60°11' E 019°08'713.8
2018-Sep-02 23:31N 60°06' E 019°17'614.0
2018-Sep-02 23:04N 60°01' E 019°24'114.0
2018-Sep-02 23:00N 60°00' E 019°25'714.1
2018-Sep-02 22:30N 59°55' E 019°34'613.9
2018-Sep-02 22:03N 59°50' E 019°41'113.9
2018-Sep-02 22:00N 59°49' E 019°43'714.2
2018-Sep-02 21:30N 59°44' E 019°51'1113.7
2018-Sep-02 20:41N 59°36' E 020°08'213.3
2018-Sep-02 20:30N 59°35' E 020°11'25912.1
2018-Sep-01 23:10N 55°45' E 016°28'314.0
2018-Sep-01 22:58N 55°44' E 016°23'613.9
2018-Sep-01 22:30N 55°43' E 016°12'613.9
2018-Sep-01 22:03N 55°42' E 016°01'113.9
2018-Sep-01 22:00N 55°42' E 015°60'713.8
2018-Sep-01 21:30N 55°40' E 015°48'613.7
2018-Sep-01 21:03N 55°38' E 015°37'113.5
2018-Sep-01 21:00N 55°38' E 015°36'713.4
2018-Sep-01 20:30N 55°36' E 015°25'613.4
2018-Sep-01 20:04N 55°34' E 015°15'113.5
2018-Sep-01 20:01N 55°34' E 015°14'713.5
2018-Sep-01 19:30N 55°31' E 015°02'613.7
2018-Sep-01 19:03N 55°28' E 014°53'113.9
2018-Sep-01 19:01N 55°28' E 014°52'713.7
2018-Sep-01 18:30N 55°24' E 014°42'613.4
2018-Sep-01 18:03N 55°20' E 014°34'113.2
2018-Sep-01 18:00N 55°20' E 014°33'713.3
2018-Sep-01 17:30N 55°14' E 014°26'613.1
2018-Sep-01 17:03N 55°10' E 014°20'114.4
2018-Sep-01 17:00N 55°10' E 014°18'714.5
2018-Sep-01 16:30N 55°10' E 014°06'4714.2
2018-Sep-01 13:13N 55°17' E 012°44'214.5
2018-Sep-01 13:03N 55°17' E 012°40'114.0
2018-Sep-01 13:00N 55°18' E 012°39'713.4
2018-Sep-01 12:29N 55°24' E 012°39'512.6
2018-Sep-01 12:03N 55°30' E 012°42'111.1
2018-Sep-01 12:00N 55°30' E 012°42'4 8.6
2018-Sep-01 11:30N 55°35' E 012°42'511.1
2018-Sep-01 11:03N 55°40' E 012°41'111.4
2018-Sep-01 11:00N 55°40' E 012°41'612.3
2018-Sep-01 10:30N 55°46' E 012°41'612.8
2018-Sep-01 10:03N 55°52' E 012°41'113.2
2018-Sep-01 10:00N 55°53' E 012°40'612.8
2018-Sep-01 09:30N 55°59' E 012°40'612.4
2018-Sep-01 09:03N 56°04' E 012°37'112.1
2018-Sep-01 08:59N 56°05' E 012°36'5 9.7
2018-Sep-01 08:30N 56°08' E 012°29'7212.8
2018-Sep-01 02:51N 57°13' E 011°33'514.3
2018-Sep-01 02:30N 57°18' E 011°30'714.5
2018-Sep-01 02:03N 57°24' E 011°26'114.4
2018-Sep-01 02:00N 57°25' E 011°26'713.7
2018-Sep-01 01:30N 57°30' E 011°19'613.8
2018-Sep-01 01:03N 57°35' E 011°10'113.7
2018-Sep-01 01:01N 57°35' E 011°09'713.7
2018-Sep-01 00:30N 57°40' E 011°00'613.7
2018-Sep-01 00:03N 57°46' E 010°58'114.1
2018-Sep-01 00:00N 57°47' E 010°59'713.7
2018-Aug-31 23:30N 57°53' E 010°52'614.2
2018-Aug-31 23:03N 57°58' E 010°44'114.1
2018-Aug-31 23:00N 57°58' E 010°43'1814.4
2018-Aug-31 21:44N 58°02' E 010°10'914.7
2018-Aug-31 21:07N 58°01' E 009°53'114.8
2018-Aug-31 21:02N 58°01' E 009°50'114.9
2018-Aug-31 20:59N 58°00' E 009°49'715.0
2018-Aug-31 20:30N 57°57' E 009°36'915.0
2018-Aug-31 19:55N 57°52' E 009°23'714.9
2018-Aug-31 19:27N 57°48' E 009°13'1414.7
2018-Aug-31 18:30N 57°41' E 008°50'714.9
2018-Aug-31 18:03N 57°38' E 008°39'114.2
2018-Aug-31 18:00N 57°37' E 008°38'1014.3
2018-Aug-31 17:20N 57°33' E 008°23'414.3
2018-Aug-31 17:02N 57°30' E 008°16'114.3
2018-Aug-31 17:00N 57°30' E 008°16'714.1
2018-Aug-31 16:29N 57°26' E 008°04'614.1
2018-Aug-31 16:03N 57°23' E 007°54'39312.8
2018-Aug-30 09:20N 51°39' E 002°28'412.4
2018-Aug-30 08:58N 51°35' E 002°23'612.6
2018-Aug-30 08:30N 51°31' E 002°17'612.6
2018-Aug-30 08:03N 51°26' E 002°12'113.0
2018-Aug-30 07:59N 51°25' E 002°12'611.6
2018-Aug-30 07:29N 51°20' E 002°17'715.1
2018-Aug-30 07:03N 51°22' E 002°27'115.0
2018-Aug-30 07:00N 51°23' E 002°28'714.2
2018-Aug-30 06:30N 51°22' E 002°40'612.3
2018-Aug-30 06:02N 51°22' E 002°49'113.3
2018-Aug-30 05:57N 51°22' E 002°51'613.1
2018-Aug-30 05:27N 51°24' E 003°01'513.0
2018-Aug-30 05:03N 51°24' E 003°09'112.8
2018-Aug-30 04:57N 51°24' E 003°11'612.7
2018-Aug-30 04:30N 51°24' E 003°20'612.6
2018-Aug-30 04:03N 51°25' E 003°29'112.4
2018-Aug-30 04:00N 51°25' E 003°30'4 8.9
2018-Aug-30 03:30N 51°26' E 003°37'4 8.8
2018-Aug-30 03:04N 51°24' E 003°43'111.7
2018-Aug-30 03:00N 51°24' E 003°43'5 9.5
2018-Aug-30 02:30N 51°21' E 003°49'1 2.4
2018-Aug-30 02:04N 51°20' E 003°49'0 0.0
2018-Aug-30 02:01N 51°20' E 003°49'0 0.6
2018-Aug-30 01:31N 51°19' E 003°49'1 1.6
2018-Aug-30 01:03N 51°19' E 003°50'0 0.3
2018-Aug-30 01:01N 51°19' E 003°50'0 0.1
2018-Aug-30 00:30N 51°19' E 003°50'2 3.7
2018-Aug-30 00:03N 51°17' E 003°50'0 6.9
2018-Aug-30 00:01N 51°17' E 003°50'4 7.2
2018-Aug-29 23:31N 51°13' E 003°48'3 7.3
2018-Aug-29 23:04N 51°10' E 003°48'0 7.1
2018-Aug-29 23:01N 51°10' E 003°47'3 6.5
2018-Aug-29 22:30N 51°07' E 003°45'2 4.7
2018-Aug-29 22:03N 51°05' E 003°44'0 2.3
2018-Aug-29 22:01N 51°05' E 003°44'0 0.1
2018-Aug-29 21:30N 51°05' E 003°45'0 0.0
2018-Aug-29 21:03N 51°05' E 003°45'0 0.0
2018-Aug-29 21:00N 51°05' E 003°45'0 0.0
2018-Aug-29 20:30N 51°05' E 003°45'0 0.0
2018-Aug-29 20:03N 51°05' E 003°45'0 0.0
2018-Aug-29 20:00N 51°05' E 003°45'0 0.0
2018-Aug-29 19:30N 51°05' E 003°45'0 0.0
2018-Aug-29 19:03N 51°05' E 003°45'0 0.0
2018-Aug-29 19:00N 51°05' E 003°45'0 0.0
2018-Aug-29 18:30N 51°05' E 003°45'0 0.0
2018-Aug-29 18:03N 51°05' E 003°45'0 0.0
2018-Aug-29 18:00N 51°05' E 003°45'0 0.0
2018-Aug-29 17:30N 51°05' E 003°45'0 0.0
2018-Aug-29 17:03N 51°05' E 003°45'0 0.0
2018-Aug-29 17:00N 51°05' E 003°45'0 0.0
2018-Aug-29 16:30N 51°05' E 003°45'0 0.0
2018-Aug-29 16:03N 51°05' E 003°45'0 0.0
2018-Aug-29 16:00N 51°05' E 003°45'0 0.0
2018-Aug-29 15:30N 51°05' E 003°45'0 0.0
2018-Aug-29 15:03N 51°05' E 003°45'0 0.0
2018-Aug-29 15:00N 51°05' E 003°45'0 0.0
2018-Aug-29 14:00N 51°05' E 003°45'0 0.0
2018-Aug-29 13:30N 51°05' E 003°45'0 0.0
2018-Aug-29 13:03N 51°05' E 003°45'0 0.0
2018-Aug-29 13:00N 51°05' E 003°45'0 0.0
2018-Aug-29 12:21N 51°05' E 003°45'0 0.0
2018-Aug-29 12:03N 51°05' E 003°45'  
Track history (hours):
 
Tides and Currents Weather Stations Pressure Air Temp Water Temp Dewpoint Dewpoint Depression Visibility Wind Speed Wind Dir Waves Ship Positions

Fairchem Charger

Last reported at 2018-Sep-08 12:03 UTC. Time now 2018-Sep-19 11:24 UTC.
Position N 58°43' E 003°47'.
Warning: this ship's position is 10 days out of date.

Length 146 m; draft 9.8 m.

Type: Ship (hazmat cat B). MMSI: 538003481.

Date/timePositionNaut miles runAvg speedWind from/ knotsBaromVisibWave heightAir tempDewpointWater temp
2018-Sep-08 12:03N 58°43' E 003°47'313.5
2018-Sep-08 11:51N 58°43' E 003°52'513.3
2018-Sep-08 11:28N 58°43' E 004°01'613.5
2018-Sep-08 11:03N 58°41' E 004°12'113.4
2018-Sep-08 10:59N 58°40' E 004°14'713.4
2018-Sep-08 10:29N 58°38' E 004°25'613.5
2018-Sep-08 10:03N 58°36' E 004°36'113.7
2018-Sep-08 10:00N 58°36' E 004°38'713.9
2018-Sep-08 09:30N 58°34' E 004°50'613.9
2018-Sep-08 09:03N 58°32' E 005°01'113.6
2018-Sep-08 09:00N 58°31' E 005°02'814.1
2018-Sep-08 08:28N 58°26' E 005°13'614.6
2018-Sep-08 08:03N 58°22' E 005°22'114.9
2018-Sep-08 08:00N 58°22' E 005°23'715.0
2018-Sep-08 07:30N 58°17' E 005°34'714.7
2018-Sep-08 07:03N 58°13' E 005°43'114.5
2018-Sep-08 07:00N 58°12' E 005°45'714.5
2018-Sep-08 06:30N 58°07' E 005°55'614.5
2018-Sep-08 06:03N 58°03' E 006°04'114.6
2018-Sep-08 06:00N 58°03' E 006°05'714.7
2018-Sep-08 05:30N 57°58' E 006°16'714.7
2018-Sep-08 05:03N 57°53' E 006°25'114.3
2018-Sep-08 04:59N 57°53' E 006°26'714.2
2018-Sep-08 04:30N 57°48' E 006°36'713.8
2018-Sep-08 03:59N 57°47' E 006°49'714.1
2018-Sep-08 03:29N 57°47' E 007°03'614.0
2018-Sep-08 03:03N 57°47' E 007°14'114.1
2018-Sep-08 03:00N 57°47' E 007°15'714.0
2018-Sep-08 02:30N 57°47' E 007°28'613.6
2018-Sep-08 02:03N 57°46' E 007°40'013.2
2018-Sep-08 02:00N 57°46' E 007°41'713.0
2018-Sep-08 01:29N 57°46' E 007°54'612.8
2018-Sep-08 01:03N 57°48' E 008°04'113.0
2018-Sep-08 01:00N 57°48' E 008°05'713.0
2018-Sep-08 00:29N 57°50' E 008°17'512.9
2018-Sep-08 00:03N 57°50' E 008°27'113.1
2018-Sep-08 00:00N 57°50' E 008°29'612.8
2018-Sep-07 23:30N 57°49' E 008°41'612.6
2018-Sep-07 23:03N 57°48' E 008°51'112.5
2018-Sep-07 23:00N 57°48' E 008°52'611.8
2018-Sep-07 22:30N 57°49' E 009°03'612.2
2018-Sep-07 22:03N 57°52' E 009°12'112.3
2018-Sep-07 21:58N 57°52' E 009°14'612.4
2018-Sep-07 21:30N 57°55' E 009°24'612.4
2018-Sep-07 21:03N 57°58' E 009°33'112.4
2018-Sep-07 21:00N 57°58' E 009°34'612.1
2018-Sep-07 20:30N 57°59' E 009°45'712.8
2018-Sep-07 19:55N 57°60' E 009°59'713.0
2018-Sep-07 19:23N 57°60' E 010°12'1213.4
2018-Sep-07 18:29N 57°60' E 010°35'614.1
2018-Sep-07 18:01N 57°56' E 010°45'114.4
2018-Sep-07 17:59N 57°56' E 010°46'714.0
2018-Sep-07 17:29N 57°52' E 010°56'613.8
2018-Sep-07 17:03N 57°48' E 011°06'113.4
2018-Sep-07 17:01N 57°48' E 011°07'713.4
2018-Sep-07 16:31N 57°42' E 011°14'613.6
2018-Sep-07 16:03N 57°37' E 011°20'113.5
2018-Sep-07 16:00N 57°36' E 011°21'612.5
2018-Sep-07 15:31N 57°33' E 011°30'510.9
2018-Sep-07 15:04N 57°34' E 011°39'1 9.9
2018-Sep-07 15:00N 57°35' E 011°40'1 0.8
2018-Sep-07 13:58N 57°35' E 011°41'0 0.0
2018-Sep-07 13:28N 57°35' E 011°41'0 0.0
2018-Sep-07 13:01N 57°35' E 011°41'0 0.0
2018-Sep-07 12:58N 57°35' E 011°41'0 0.0
2018-Sep-07 12:28N 57°35' E 011°41'0 0.0
2018-Sep-07 12:01N 57°35' E 011°41'0 0.2
2018-Sep-07 11:55N 57°35' E 011°41'0 0.0
2018-Sep-07 11:28N 57°35' E 011°41'0 0.8
2018-Sep-07 11:03N 57°35' E 011°40'0 5.1
2018-Sep-07 11:00N 57°35' E 011°40'3 6.7
2018-Sep-07 10:30N 57°33' E 011°35'4 8.6
2018-Sep-07 10:03N 57°30' E 011°31'112.3
2018-Sep-07 10:00N 57°29' E 011°31'611.6
2018-Sep-07 09:30N 57°23' E 011°30'613.5
2018-Sep-07 09:03N 57°17' E 011°34'114.4
2018-Sep-07 09:00N 57°17' E 011°34'814.1
2018-Sep-07 08:28N 57°10' E 011°38'12111.5
2018-Sep-06 21:59N 55°10' E 011°04'612.8
2018-Sep-06 21:30N 55°04' E 011°02'612.3
2018-Sep-06 21:03N 54°59' E 010°60'111.8
2018-Sep-06 21:00N 54°58' E 010°59'612.2
2018-Sep-06 20:30N 54°53' E 010°53'612.6
2018-Sep-06 20:03N 54°48' E 010°52'111.3
2018-Sep-06 20:00N 54°47' E 010°53'4 8.3
2018-Sep-06 19:30N 54°43' E 010°53'3 6.8
2018-Sep-06 19:03N 54°41' E 010°57'0 6.9
2018-Sep-06 19:00N 54°41' E 010°58'3 6.5
2018-Sep-06 18:30N 54°39' E 011°03'4 8.3
2018-Sep-06 18:03N 54°37' E 011°08'0 6.3
2018-Sep-06 18:00N 54°37' E 011°09'3 6.6
2018-Sep-06 17:30N 54°35' E 011°14'511.7
2018-Sep-06 17:02N 54°33' E 011°22'012.2
2018-Sep-06 17:00N 54°33' E 011°23'612.4
2018-Sep-06 16:30N 54°30' E 011°33'512.4
2018-Sep-06 16:03N 54°28' E 011°41'112.3
2018-Sep-06 16:00N 54°28' E 011°42'7612.4
2018-Sep-06 09:54N 54°59' E 013°41'513.3
2018-Sep-06 09:30N 55°01' E 013°49'613.4
2018-Sep-06 09:03N 55°03' E 013°59'113.5
2018-Sep-06 09:00N 55°03' E 014°01'713.0
2018-Sep-06 08:30N 55°07' E 014°09'613.3
2018-Sep-06 08:03N 55°12' E 014°16'113.5
2018-Sep-06 08:00N 55°13' E 014°16'713.6
2018-Sep-06 07:30N 55°18' E 014°24'613.5
2018-Sep-06 07:03N 55°23' E 014°31'113.9
2018-Sep-06 07:00N 55°23' E 014°31'713.6
2018-Sep-06 06:30N 55°27' E 014°40'613.6
2018-Sep-06 06:03N 55°30' E 014°50'113.4
2018-Sep-06 06:00N 55°31' E 014°51'713.6
2018-Sep-06 05:30N 55°34' E 015°02'613.6
2018-Sep-06 05:03N 55°37' E 015°11'113.8
2018-Sep-06 05:00N 55°37' E 015°12'713.5
2018-Sep-06 04:30N 55°39' E 015°24'613.3
2018-Sep-06 04:03N 55°41' E 015°34'113.4
2018-Sep-06 04:00N 55°41' E 015°35'713.4
2018-Sep-06 03:30N 55°43' E 015°47'613.2
2018-Sep-06 03:03N 55°45' E 015°57'113.4
2018-Sep-06 03:00N 55°45' E 015°58'713.2
2018-Sep-06 02:30N 55°49' E 016°07'613.1
2018-Sep-06 02:03N 55°54' E 016°14'113.2
2018-Sep-06 02:00N 55°54' E 016°14'713.3
2018-Sep-06 01:30N 55°59' E 016°23'613.6
2018-Sep-06 01:03N 56°03' E 016°31'113.5
2018-Sep-06 01:00N 56°03' E 016°32'713.7
2018-Sep-06 00:30N 56°07' E 016°42'612.8
2018-Sep-06 00:03N 56°12' E 016°48'113.4
2018-Sep-06 00:00N 56°13' E 016°48'713.4
2018-Sep-05 23:29N 56°19' E 016°53'813.5
2018-Sep-05 22:55N 56°26' E 016°57'7013.4
2018-Sep-05 17:41N 57°32' E 017°43'313.8
2018-Sep-05 17:29N 57°35' E 017°46'4013.8
2018-Sep-05 14:33N 58°10' E 018°21'513.4
2018-Sep-05 14:10N 58°15' E 018°25'413.4
2018-Sep-05 13:51N 58°19' E 018°29'1213.4
2018-Sep-05 12:58N 58°29' E 018°41'3713.3
2018-Sep-05 10:12N 58°55' E 019°30'213.4
2018-Sep-05 10:03N 58°57' E 019°32'713.4
2018-Sep-05 09:34N 59°02' E 019°38'113.3
2018-Sep-05 09:29N 59°03' E 019°39'913.4
2018-Sep-05 08:49N 59°11' E 019°47'513.4
2018-Sep-05 08:24N 59°16' E 019°51'513.4
2018-Sep-05 08:03N 59°21' E 019°55'113.6
2018-Sep-05 07:59N 59°22' E 019°56'713.6
2018-Sep-05 07:30N 59°27' E 020°02'613.5
2018-Sep-05 07:03N 59°33' E 020°05'112.9
2018-Sep-05 07:00N 59°34' E 020°05'713.3
2018-Sep-05 06:30N 59°38' E 019°55'613.4
2018-Sep-05 06:03N 59°43' E 019°47'113.5
2018-Sep-05 06:00N 59°43' E 019°46'713.5
2018-Sep-05 05:30N 59°48' E 019°38'613.5
2018-Sep-05 05:03N 59°53' E 019°30'113.5
2018-Sep-05 04:59N 59°54' E 019°29'613.4
2018-Sep-05 04:30N 59°59' E 019°20'613.5
2018-Sep-05 04:03N 60°03' E 019°13'113.7
2018-Sep-05 04:00N 60°04' E 019°12'713.6
2018-Sep-05 03:30N 60°09' E 019°03'612.9
2018-Sep-05 03:03N 60°15' E 018°60'113.8
2018-Sep-05 03:00N 60°15' E 018°60'713.6
2018-Sep-05 02:30N 60°22' E 018°60'613.5
2018-Sep-05 02:03N 60°28' E 018°58'113.4
2018-Sep-05 02:00N 60°29' E 018°58'713.1
2018-Sep-05 01:30N 60°35' E 018°60'5813.4
2018-Sep-04 21:10N 61°16' E 020°25'213.6
2018-Sep-04 21:00N 61°18' E 020°28'63 1.4
2018-Sep-03 01:27N 60°30' E 019°03'513.7
2018-Sep-03 01:03N 60°25' E 019°02'113.6
2018-Sep-03 01:00N 60°24' E 019°02'713.6
2018-Sep-03 00:30N 60°17' E 019°02'613.4
2018-Sep-03 00:03N 60°12' E 019°07'113.5
2018-Sep-03 00:00N 60°11' E 019°08'713.8
2018-Sep-02 23:31N 60°06' E 019°17'614.0
2018-Sep-02 23:04N 60°01' E 019°24'114.0
2018-Sep-02 23:00N 60°00' E 019°25'714.1
2018-Sep-02 22:30N 59°55' E 019°34'613.9
2018-Sep-02 22:03N 59°50' E 019°41'113.9
2018-Sep-02 22:00N 59°49' E 019°43'714.2
2018-Sep-02 21:30N 59°44' E 019°51'1113.7
2018-Sep-02 20:41N 59°36' E 020°08'213.3
2018-Sep-02 20:30N 59°35' E 020°11'25912.1
2018-Sep-01 23:10N 55°45' E 016°28'314.0
2018-Sep-01 22:58N 55°44' E 016°23'613.9
2018-Sep-01 22:30N 55°43' E 016°12'613.9
2018-Sep-01 22:03N 55°42' E 016°01'113.9
2018-Sep-01 22:00N 55°42' E 015°60'713.8
2018-Sep-01 21:30N 55°40' E 015°48'613.7
2018-Sep-01 21:03N 55°38' E 015°37'113.5
2018-Sep-01 21:00N 55°38' E 015°36'713.4
2018-Sep-01 20:30N 55°36' E 015°25'613.4
2018-Sep-01 20:04N 55°34' E 015°15'113.5
2018-Sep-01 20:01N 55°34' E 015°14'713.5
2018-Sep-01 19:30N 55°31' E 015°02'613.7
2018-Sep-01 19:03N 55°28' E 014°53'113.9
2018-Sep-01 19:01N 55°28' E 014°52'713.7
2018-Sep-01 18:30N 55°24' E 014°42'613.4
2018-Sep-01 18:03N 55°20' E 014°34'113.2
2018-Sep-01 18:00N 55°20' E 014°33'713.3
2018-Sep-01 17:30N 55°14' E 014°26'613.1
2018-Sep-01 17:03N 55°10' E 014°20'114.4
2018-Sep-01 17:00N 55°10' E 014°18'714.5
2018-Sep-01 16:30N 55°10' E 014°06'4714.2
2018-Sep-01 13:13N 55°17' E 012°44'214.5
2018-Sep-01 13:03N 55°17' E 012°40'114.0
2018-Sep-01 13:00N 55°18' E 012°39'713.4
2018-Sep-01 12:29N 55°24' E 012°39'512.6
2018-Sep-01 12:03N 55°30' E 012°42'111.1
2018-Sep-01 12:00N 55°30' E 012°42'4 8.6
2018-Sep-01 11:30N 55°35' E 012°42'511.1
2018-Sep-01 11:03N 55°40' E 012°41'111.4
2018-Sep-01 11:00N 55°40' E 012°41'612.3
2018-Sep-01 10:30N 55°46' E 012°41'612.8
2018-Sep-01 10:03N 55°52' E 012°41'113.2
2018-Sep-01 10:00N 55°53' E 012°40'612.8
2018-Sep-01 09:30N 55°59' E 012°40'612.4
2018-Sep-01 09:03N 56°04' E 012°37'112.1
2018-Sep-01 08:59N 56°05' E 012°36'5 9.7
2018-Sep-01 08:30N 56°08' E 012°29'7212.8
2018-Sep-01 02:51N 57°13' E 011°33'514.3
2018-Sep-01 02:30N 57°18' E 011°30'714.5
2018-Sep-01 02:03N 57°24' E 011°26'114.4
2018-Sep-01 02:00N 57°25' E 011°26'713.7
2018-Sep-01 01:30N 57°30' E 011°19'613.8
2018-Sep-01 01:03N 57°35' E 011°10'113.7
2018-Sep-01 01:01N 57°35' E 011°09'713.7
2018-Sep-01 00:30N 57°40' E 011°00'613.7
2018-Sep-01 00:03N 57°46' E 010°58'114.1
2018-Sep-01 00:00N 57°47' E 010°59'713.7
2018-Aug-31 23:30N 57°53' E 010°52'614.2
2018-Aug-31 23:03N 57°58' E 010°44'114.1
2018-Aug-31 23:00N 57°58' E 010°43'1814.4
2018-Aug-31 21:44N 58°02' E 010°10'914.7
2018-Aug-31 21:07N 58°01' E 009°53'114.8
2018-Aug-31 21:02N 58°01' E 009°50'114.9
2018-Aug-31 20:59N 58°00' E 009°49'715.0
2018-Aug-31 20:30N 57°57' E 009°36'915.0
2018-Aug-31 19:55N 57°52' E 009°23'714.9
2018-Aug-31 19:27N 57°48' E 009°13'1414.7
2018-Aug-31 18:30N 57°41' E 008°50'714.9
2018-Aug-31 18:03N 57°38' E 008°39'114.2
2018-Aug-31 18:00N 57°37' E 008°38'1014.3
2018-Aug-31 17:20N 57°33' E 008°23'414.3
2018-Aug-31 17:02N 57°30' E 008°16'114.3
2018-Aug-31 17:00N 57°30' E 008°16'714.1
2018-Aug-31 16:29N 57°26' E 008°04'614.1
2018-Aug-31 16:03N 57°23' E 007°54'39312.8
2018-Aug-30 09:20N 51°39' E 002°28'412.4
2018-Aug-30 08:58N 51°35' E 002°23'612.6
2018-Aug-30 08:30N 51°31' E 002°17'612.6
2018-Aug-30 08:03N 51°26' E 002°12'113.0
2018-Aug-30 07:59N 51°25' E 002°12'611.6
2018-Aug-30 07:29N 51°20' E 002°17'715.1
2018-Aug-30 07:03N 51°22' E 002°27'115.0
2018-Aug-30 07:00N 51°23' E 002°28'714.2
2018-Aug-30 06:30N 51°22' E 002°40'612.3
2018-Aug-30 06:02N 51°22' E 002°49'113.3
2018-Aug-30 05:57N 51°22' E 002°51'613.1
2018-Aug-30 05:27N 51°24' E 003°01'513.0
2018-Aug-30 05:03N 51°24' E 003°09'112.8
2018-Aug-30 04:57N 51°24' E 003°11'612.7
2018-Aug-30 04:30N 51°24' E 003°20'612.6
2018-Aug-30 04:03N 51°25' E 003°29'112.4
2018-Aug-30 04:00N 51°25' E 003°30'4 8.9
2018-Aug-30 03:30N 51°26' E 003°37'4 8.8
2018-Aug-30 03:04N 51°24' E 003°43'111.7
2018-Aug-30 03:00N 51°24' E 003°43'5 9.5
2018-Aug-30 02:30N 51°21' E 003°49'1 2.4
2018-Aug-30 02:04N 51°20' E 003°49'0 0.0
2018-Aug-30 02:01N 51°20' E 003°49'0 0.6
2018-Aug-30 01:31N 51°19' E 003°49'1 1.6
2018-Aug-30 01:03N 51°19' E 003°50'0 0.3
2018-Aug-30 01:01N 51°19' E 003°50'0 0.1
2018-Aug-30 00:30N 51°19' E 003°50'2 3.7
2018-Aug-30 00:03N 51°17' E 003°50'0 6.9
2018-Aug-30 00:01N 51°17' E 003°50'4 7.2
2018-Aug-29 23:31N 51°13' E 003°48'3 7.3
2018-Aug-29 23:04N 51°10' E 003°48'0 7.1
2018-Aug-29 23:01N 51°10' E 003°47'3 6.5
2018-Aug-29 22:30N 51°07' E 003°45'2 4.7
2018-Aug-29 22:03N 51°05' E 003°44'0 2.3
2018-Aug-29 22:01N 51°05' E 003°44'0 0.1
2018-Aug-29 21:30N 51°05' E 003°45'0 0.0
2018-Aug-29 21:03N 51°05' E 003°45'0 0.0
2018-Aug-29 21:00N 51°05' E 003°45'0 0.0
2018-Aug-29 20:30N 51°05' E 003°45'0 0.0
2018-Aug-29 20:03N 51°05' E 003°45'0 0.0
2018-Aug-29 20:00N 51°05' E 003°45'0 0.0
2018-Aug-29 19:30N 51°05' E 003°45'0 0.0
2018-Aug-29 19:03N 51°05' E 003°45'0 0.0
2018-Aug-29 19:00N 51°05' E 003°45'0 0.0
2018-Aug-29 18:30N 51°05' E 003°45'0 0.0
2018-Aug-29 18:03N 51°05' E 003°45'0 0.0
2018-Aug-29 18:00N 51°05' E 003°45'0 0.0
2018-Aug-29 17:30N 51°05' E 003°45'0 0.0
2018-Aug-29 17:03N 51°05' E 003°45'0 0.0
2018-Aug-29 17:00N 51°05' E 003°45'0 0.0
2018-Aug-29 16:30N 51°05' E 003°45'0 0.0
2018-Aug-29 16:03N 51°05' E 003°45'0 0.0
2018-Aug-29 16:00N 51°05' E 003°45'0 0.0
2018-Aug-29 15:30N 51°05' E 003°45'0 0.0
2018-Aug-29 15:03N 51°05' E 003°45'0 0.0
2018-Aug-29 15:00N 51°05' E 003°45'0 0.0
2018-Aug-29 14:00N 51°05' E 003°45'0 0.0
2018-Aug-29 13:30N 51°05' E 003°45'0 0.0
2018-Aug-29 13:03N 51°05' E 003°45'0 0.0
2018-Aug-29 13:00N 51°05' E 003°45'0 0.0
2018-Aug-29 12:21N 51°05' E 003°45'0 0.0
2018-Aug-29 12:03N 51°05' E 003°45'  

Dump ship's entire track history